METAR Data

Data at: 1823 UTC 21 Nov 2018

METAR for:KEEN (Keene/Hopkins Arpt, NH, US)
Text:KEEN 211756Z AUTO 19010KT 10SM BKN044 BKN055 02/M03 A2982 RMK AO2 SLP117 T00171028 10017 21039 56034 FZRANO $
Temperature: 1.7°C ( 35°F)
Dewpoint: -2.8°C ( 27°F) [RH = 72%]
Pressure (altimeter):29.82 inches Hg (1009.9 mb) [Sea level pressure: 1011.7 mb]
Winds:from the S (190 degrees) at 12 MPH (10 knots; 5.1 m/s)
Visibility:10 or more sm (16+ km)
Ceiling:4400 feet AGL
Clouds: broken clouds at 4400 feet AGL, broken clouds at 5500 feet AGL
QC Flag:automated observation with no human augmentation; SOME DATA ABOVE MAY BE INACCURATE!!!"$" is an indication the sensor requires maintenance.